Time;durP1;ratioP1;P1;durP2;ratioP2;P2;SDS_P1;SDS_P2;PMS_P1;PMS_P2;Temp;Humidity;BMP_temperature;BMP_pressure;BME280_temperature;BME280_humidity;BME280_pressure;Samples;Min_cycle;Max_cycle;Signal;HPM_P1;HPM_P2
2022/12/06 00:01:12;;;;;;;65.57;35.87;;;;;;;;;;4389901;32;20260;-81
2022/12/06 00:03:41;;;;;;;69.77;38.03;;;;;;;;;;4392178;32;20230;-82
2022/12/06 00:06:10;;;;;;;63.00;38.00;;;;;;;;;;4378872;32;20226;-81
2022/12/06 00:08:40;;;;;;;72.27;39.87;;;;;;;;;;4376494;32;20402;-84
2022/12/06 00:11:09;;;;;;;54.23;36.30;;;;;;;;;;4377285;32;20309;-83
2022/12/06 00:13:36;;;;;;;57.03;37.37;;;;;;;;;;4375331;32;20260;-82
2022/12/06 00:16:04;;;;;;;65.73;37.50;;;;;;;;;;4376845;32;20218;-80
2022/12/06 00:18:33;;;;;;;62.20;37.40;;;;;;;;;;4375703;32;20294;-82
2022/12/06 00:21:06;;;;;;;68.77;40.80;;;;;;;;;;4376843;32;20218;-79
2022/12/06 00:23:35;;;;;;;56.83;33.73;;;;;;;;;;4374909;32;20241;-80
2022/12/06 00:26:04;;;;;;;64.23;37.20;;;;;;;;;;4376817;32;20238;-83
2022/12/06 00:28:31;;;;;;;51.50;32.27;;;;;;;;;;4376331;32;20526;-84
2022/12/06 00:30:59;;;;;;;48.10;29.17;;;;;;;;;;4374736;32;20313;-85
2022/12/06 00:33:26;;;;;;;44.33;25.53;;;;;;;;;;4374453;32;20241;-79
2022/12/06 00:35:56;;;;;;;50.13;22.87;;;;;;;;;;4373880;32;20253;-80
2022/12/06 00:38:24;;;;;;;33.97;21.93;;;;;;;;;;4383090;32;20242;-85
2022/12/06 00:40:51;;;;;;;33.40;20.67;;;;;;;;;;4388983;32;20358;-80
2022/12/06 00:43:19;;;;;;;38.17;21.90;;;;;;;;;;4388949;32;20315;-83
2022/12/06 00:45:46;;;;;;;31.77;18.03;;;;;;;;;;4389278;32;20271;-81
2022/12/06 00:48:12;;;;;;;29.87;16.43;;;;;;;;;;4388638;32;20424;-79
2022/12/06 00:50:39;;;;;;;28.70;16.50;;;;;;;;;;4389007;32;20306;-82
2022/12/06 00:53:06;;;;;;;19.13;13.37;;;;;;;;;;4388498;32;20214;-80
2022/12/06 00:55:34;;;;;;;20.80;13.57;;;;;;;;;;4388971;32;20253;-79
2022/12/06 00:58:02;;;;;;;23.77;11.37;;;;;;;;;;4389042;32;20230;-83
2022/12/06 01:00:30;;;;;;;17.10;11.00;;;;;;;;;;4382280;32;20658;-81
2022/12/06 01:02:58;;;;;;;22.63;11.30;;;;;;;;;;4388901;32;20314;-80
2022/12/06 01:05:24;;;;;;;14.20;9.97;;;;;;;;;;4380666;32;20234;-79
2022/12/06 01:07:51;;;;;;;18.37;11.53;;;;;;;;;;4372867;32;20638;-80
2022/12/06 01:10:19;;;;;;;20.60;10.70;;;;;;;;;;4373329;32;20271;-80
2022/12/06 01:12:46;;;;;;;15.93;10.80;;;;;;;;;;4373515;32;20503;-80
2022/12/06 01:15:13;;;;;;;17.17;11.50;;;;;;;;;;4373400;32;20331;-80
2022/12/06 01:17:42;;;;;;;16.47;10.50;;;;;;;;;;4373463;32;20226;-84
2022/12/06 01:20:12;;;;;;;24.40;11.47;;;;;;;;;;4373316;32;20262;-84
2022/12/06 01:22:38;;;;;;;18.10;10.90;;;;;;;;;;4372829;32;20284;-80
2022/12/06 01:25:06;;;;;;;23.50;11.07;;;;;;;;;;4378244;32;20245;-81
2022/12/06 01:27:32;;;;;;;16.80;11.03;;;;;;;;;;4390239;32;20206;-81
2022/12/06 01:29:59;;;;;;;17.97;12.40;;;;;;;;;;4386347;32;20267;-78
2022/12/06 01:32:28;;;;;;;22.50;13.47;;;;;;;;;;4387664;32;20222;-84
2022/12/06 01:34:57;;;;;;;22.47;12.03;;;;;;;;;;4361358;32;20576;-78
2022/12/06 01:37:24;;;;;;;22.97;12.73;;;;;;;;;;4375470;32;20300;-80
2022/12/06 01:39:51;;;;;;;21.10;14.73;;;;;;;;;;4387512;32;20733;-78
2022/12/06 01:42:18;;;;;;;33.80;17.37;;;;;;;;;;4388008;32;20292;-79
2022/12/06 01:44:47;;;;;;;49.67;21.47;;;;;;;;;;4387642;32;20241;-79
2022/12/06 01:47:18;;;;;;;31.30;15.70;;;;;;;;;;4387632;32;20645;-79
2022/12/06 01:49:50;;;;;;;20.30;12.70;;;;;;;;;;4387720;32;20306;-80
2022/12/06 01:52:20;;;;;;;16.27;11.23;;;;;;;;;;4387906;32;20240;-80
2022/12/06 01:54:47;;;;;;;21.17;12.63;;;;;;;;;;4387658;32;20255;-81
2022/12/06 01:57:16;;;;;;;24.77;12.77;;;;;;;;;;4387400;32;20268;-81
2022/12/06 01:59:43;;;;;;;18.40;12.83;;;;;;;;;;4387902;32;20229;-80
2022/12/06 02:02:11;;;;;;;21.90;11.30;;;;;;;;;;4388327;32;20214;-79
2022/12/06 02:04:37;;;;;;;22.60;11.20;;;;;;;;;;4385155;32;20231;-79
2022/12/06 02:07:06;;;;;;;24.83;12.10;;;;;;;;;;4373182;32;20237;-80
2022/12/06 02:09:35;;;;;;;18.80;12.10;;;;;;;;;;4372508;32;20275;-81
2022/12/06 02:12:02;;;;;;;19.07;11.30;;;;;;;;;;4372497;32;20295;-81
2022/12/06 02:14:30;;;;;;;16.47;10.90;;;;;;;;;;4373198;32;20391;-81
2022/12/06 02:17:11;;;;;;;13.27;9.77;;;;;;;;;;4373163;32;20303;-81
2022/12/06 02:20:07;;;;;;;23.93;9.87;;;;;;;;;;4372779;32;20425;-81
2022/12/06 02:22:52;;;;;;;16.90;9.77;;;;;;;;;;4359547;32;20678;-79
2022/12/06 02:25:44;;;;;;;17.67;9.77;;;;;;;;;;4372955;32;20232;-79
2022/12/06 02:28:45;;;;;;;22.53;9.87;;;;;;;;;;4372495;32;20677;-80
2022/12/06 02:31:16;;;;;;;17.63;10.23;;;;;;;;;;4369933;32;20257;-82
2022/12/06 02:33:49;;;;;;;20.07;10.50;;;;;;;;;;4372600;32;20262;-78
2022/12/06 02:36:26;;;;;;;17.20;11.43;;;;;;;;;;4373183;32;20675;-80
2022/12/06 02:38:56;;;;;;;18.13;10.17;;;;;;;;;;4384612;32;20283;-79
2022/12/06 02:41:28;;;;;;;17.63;10.50;;;;;;;;;;4387322;32;20221;-81
2022/12/06 02:44:00;;;;;;;25.10;13.00;;;;;;;;;;4387394;32;20226;-82
2022/12/06 02:46:34;;;;;;;23.07;12.50;;;;;;;;;;4388155;32;20812;-79
2022/12/06 02:49:04;;;;;;;23.37;12.53;;;;;;;;;;4389126;32;20265;-80
2022/12/06 02:51:32;;;;;;;23.37;14.27;;;;;;;;;;4390352;32;20797;-83
2022/12/06 02:54:02;;;;;;;38.70;15.27;;;;;;;;;;4389329;32;20299;-80
2022/12/06 02:56:31;;;;;;;32.10;15.30;;;;;;;;;;4390123;32;20340;-79
2022/12/06 02:58:59;;;;;;;27.30;15.30;;;;;;;;;;4390283;32;20313;-80
2022/12/06 03:01:31;;;;;;;20.40;12.57;;;;;;;;;;4390199;32;20701;-80
2022/12/06 03:04:12;;;;;;;19.10;12.03;;;;;;;;;;4390793;32;20214;-79
2022/12/06 03:06:53;;;;;;;21.00;11.93;;;;;;;;;;4375568;32;20316;-80
2022/12/06 03:09:36;;;;;;;20.90;12.57;;;;;;;;;;4375372;32;20249;-82
2022/12/06 03:12:11;;;;;;;25.83;11.33;;;;;;;;;;4375385;32;20218;-82
2022/12/06 03:14:48;;;;;;;19.17;13.07;;;;;;;;;;4375205;32;20233;-85
2022/12/06 03:17:25;;;;;;;23.97;14.17;;;;;;;;;;4375457;32;20210;-85
2022/12/06 03:19:57;;;;;;;26.13;13.80;;;;;;;;;;4375359;32;20260;-81
2022/12/06 03:22:29;;;;;;;23.00;12.83;;;;;;;;;;4375032;32;20275;-82
2022/12/06 03:24:56;;;;;;;21.63;14.60;;;;;;;;;;4374608;32;20234;-84
2022/12/06 03:27:25;;;;;;;33.17;14.70;;;;;;;;;;4375274;32;20254;-80
2022/12/06 03:29:55;;;;;;;25.90;17.03;;;;;;;;;;4375065;32;20234;-82
2022/12/06 03:32:28;;;;;;;27.40;16.90;;;;;;;;;;4374922;32;20588;-84
2022/12/06 03:34:57;;;;;;;30.50;15.00;;;;;;;;;;4375167;32;20650;-79
2022/12/06 03:37:27;;;;;;;24.57;15.50;;;;;;;;;;4374380;32;20234;-79
2022/12/06 03:40:04;;;;;;;25.37;16.03;;;;;;;;;;4375695;32;20256;-79
2022/12/06 03:42:31;;;;;;;23.67;16.03;;;;;;;;;;4389448;32;20230;-84
2022/12/06 03:44:58;;;;;;;25.40;14.40;;;;;;;;;;4389604;32;20246;-83
2022/12/06 03:47:33;;;;;;;35.83;14.83;;;;;;;;;;4389639;32;20233;-81
2022/12/06 03:50:04;;;;;;;28.43;15.90;;;;;;;;;;4389066;32;20237;-80
2022/12/06 03:52:33;;;;;;;24.77;14.10;;;;;;;;;;4389273;32;20281;-81
2022/12/06 03:55:00;;;;;;;35.07;16.50;;;;;;;;;;4389105;32;20334;-80
2022/12/06 03:57:27;;;;;;;27.17;14.37;;;;;;;;;;4389746;32;20309;-84
2022/12/06 03:59:53;;;;;;;21.23;14.67;;;;;;;;;;4388714;32;20787;-80
2022/12/06 04:02:22;;;;;;;30.67;16.90;;;;;;;;;;4389602;32;20271;-81
2022/12/06 04:04:52;;;;;;;24.13;12.70;;;;;;;;;;4385463;32;20670;-81
2022/12/06 04:07:20;;;;;;;22.97;13.10;;;;;;;;;;4373735;32;20222;-80
2022/12/06 04:09:55;;;;;;;22.60;14.53;;;;;;;;;;4373938;32;20241;-81
2022/12/06 04:15:08;;;;;;;30.83;14.43;;;;;;;;;;4374192;32;20248;-79
2022/12/06 04:20:23;;;;;;;27.33;13.60;;;;;;;;;;4373770;32;20264;-80
2022/12/06 04:23:02;;;;;;;16.40;11.67;;;;;;;;;;4373121;32;20382;-81
2022/12/06 04:25:29;;;;;;;17.83;9.93;;;;;;;;;;4374052;32;20297;-81
2022/12/06 04:39:03;;;;;;;16.73;9.60;;;;;;;;;;4325471;33;20278;-81
2022/12/06 04:44:14;;;;;;;17.43;10.53;;;;;;;;;;4373564;32;20376;-79
2022/12/06 04:46:40;;;;;;;17.77;12.00;;;;;;;;;;4387675;32;20229;-80
2022/12/06 04:49:07;;;;;;;27.90;11.77;;;;;;;;;;4389025;32;20232;-86
2022/12/06 04:51:36;;;;;;;17.57;10.27;;;;;;;;;;4388239;32;20299;-84
2022/12/06 04:54:04;;;;;;;15.63;11.67;;;;;;;;;;4388283;32;20247;-81
2022/12/06 04:56:31;;;;;;;27.60;14.40;;;;;;;;;;4387978;32;20252;-80
2022/12/06 04:58:57;;;;;;;21.33;13.40;;;;;;;;;;4384248;32;20751;-82
2022/12/06 05:01:24;;;;;;;25.23;12.87;;;;;;;;;;4373374;32;20771;-79
2022/12/06 05:03:51;;;;;;;29.30;14.17;;;;;;;;;;4373690;32;20604;-86
2022/12/06 05:06:18;;;;;;;21.50;11.63;;;;;;;;;;4373267;32;20280;-80
2022/12/06 05:08:46;;;;;;;16.97;11.90;;;;;;;;;;4372666;32;20237;-79
2022/12/06 05:11:14;;;;;;;23.20;12.53;;;;;;;;;;4372595;32;20221;-79
2022/12/06 05:13:41;;;;;;;24.23;14.20;;;;;;;;;;4373116;32;20287;-79
2022/12/06 05:16:08;;;;;;;21.83;13.83;;;;;;;;;;4373637;32;20288;-79
2022/12/06 05:18:36;;;;;;;29.40;12.77;;;;;;;;;;4382908;32;20223;-82
2022/12/06 05:21:05;;;;;;;28.30;13.57;;;;;;;;;;4386978;32;20174;-81
2022/12/06 05:23:33;;;;;;;19.07;11.83;;;;;;;;;;4386454;32;20261;-82
2022/12/06 05:26:03;;;;;;;22.43;12.50;;;;;;;;;;4386607;32;20310;-85
2022/12/06 05:28:30;;;;;;;24.97;12.40;;;;;;;;;;4378421;32;20313;-79
2022/12/06 05:30:57;;;;;;;24.93;13.87;;;;;;;;;;4372849;32;20812;-79
2022/12/06 05:33:25;;;;;;;21.53;11.33;;;;;;;;;;4373062;32;20311;-80
2022/12/06 05:35:52;;;;;;;19.73;10.00;;;;;;;;;;4373368;32;20576;-79
2022/12/06 05:38:19;;;;;;;25.20;9.77;;;;;;;;;;4382053;32;20279;-90
2022/12/06 05:40:47;;;;;;;19.60;9.87;;;;;;;;;;4386997;32;20230;-83
2022/12/06 05:43:15;;;;;;;15.20;11.17;;;;;;;;;;4387612;32;20783;-81
2022/12/06 05:45:43;;;;;;;21.17;10.17;;;;;;;;;;4388039;32;20225;-82
2022/12/06 05:48:10;;;;;;;17.27;9.40;;;;;;;;;;4388423;32;20788;-84
2022/12/06 05:50:37;;;;;;;14.20;9.00;;;;;;;;;;4388019;32;20255;-91
2022/12/06 05:53:03;;;;;;;22.73;9.40;;;;;;;;;;4400997;32;20245;-79
2022/12/06 05:55:30;;;;;;;25.97;9.70;;;;;;;;;;4402070;32;20306;-81
2022/12/06 05:57:57;;;;;;;15.97;9.63;;;;;;;;;;4402106;32;20277;-81
2022/12/06 06:00:26;;;;;;;20.07;9.60;;;;;;;;;;4376098;32;20230;-81
2022/12/06 06:02:52;;;;;;;15.53;8.83;;;;;;;;;;4371803;32;20617;-84
2022/12/06 06:05:19;;;;;;;28.97;12.30;;;;;;;;;;4370744;32;20269;-82
2022/12/06 06:07:46;;;;;;;28.60;14.87;;;;;;;;;;4370859;32;20248;-82
2022/12/06 06:10:13;;;;;;;23.47;14.40;;;;;;;;;;4371932;32;20218;-86
2022/12/06 06:12:40;;;;;;;23.43;14.03;;;;;;;;;;4371454;32;20324;-83
2022/12/06 06:15:07;;;;;;;28.70;14.53;;;;;;;;;;4371882;32;20280;-86
2022/12/06 06:17:36;;;;;;;17.67;12.97;;;;;;;;;;4376082;32;20237;-83
2022/12/06 06:20:05;;;;;;;19.80;12.00;;;;;;;;;;4400974;32;20682;-86
2022/12/06 06:22:32;;;;;;;21.83;10.97;;;;;;;;;;4401351;32;20248;-85
2022/12/06 06:24:58;;;;;;;27.93;12.60;;;;;;;;;;4404902;32;20242;-81
2022/12/06 06:27:25;;;;;;;24.63;12.57;;;;;;;;;;4405193;32;20233;-85
2022/12/06 06:29:52;;;;;;;19.17;11.07;;;;;;;;;;4405027;32;20213;-86
2022/12/06 06:32:20;;;;;;;23.03;11.30;;;;;;;;;;4405087;32;20237;-86
2022/12/06 06:34:48;;;;;;;23.73;12.03;;;;;;;;;;4404858;32;20226;-85
2022/12/06 06:37:15;;;;;;;23.33;14.00;;;;;;;;;;4400938;32;20267;-82
2022/12/06 06:39:42;;;;;;;26.77;15.97;;;;;;;;;;4389442;32;20548;-85
2022/12/06 06:42:09;;;;;;;46.30;34.17;;;;;;;;;;4389163;32;20267;-81
2022/12/06 06:44:36;;;;;;;46.50;30.70;;;;;;;;;;4389414;32;20276;-84
2022/12/06 06:47:03;;;;;;;38.40;23.80;;;;;;;;;;4389826;32;20279;-89
2022/12/06 06:49:30;;;;;;;30.07;15.23;;;;;;;;;;4390126;32;20340;-83
2022/12/06 06:51:58;;;;;;;25.43;14.50;;;;;;;;;;4389296;32;20217;-82
2022/12/06 06:54:26;;;;;;;32.90;15.50;;;;;;;;;;4390029;32;20234;-81
2022/12/06 06:56:54;;;;;;;29.20;16.60;;;;;;;;;;4389510;32;20241;-81
2022/12/06 06:59:26;;;;;;;38.53;16.63;;;;;;;;;;4383289;32;20276;-83
2022/12/06 07:01:52;;;;;;;40.83;25.20;;;;;;;;;;4375379;32;20226;-93
2022/12/06 07:04:19;;;;;;;36.20;20.73;;;;;;;;;;4374623;32;20634;-83
2022/12/06 07:06:46;;;;;;;38.13;23.60;;;;;;;;;;4374289;32;20230;-85
2022/12/06 07:09:14;;;;;;;44.40;23.63;;;;;;;;;;4374109;32;20707;-83
2022/12/06 07:11:41;;;;;;;59.07;25.73;;;;;;;;;;4374065;32;20590;-82
2022/12/06 07:14:08;;;;;;;59.57;32.07;;;;;;;;;;4372811;32;20242;-82
2022/12/06 07:16:34;;;;;;;58.30;33.17;;;;;;;;;;4374680;32;20506;-81
2022/12/06 07:19:01;;;;;;;57.73;39.53;;;;;;;;;;4374494;32;20857;-81
2022/12/06 07:21:28;;;;;;;75.40;48.17;;;;;;;;;;4374411;32;20225;-80
2022/12/06 07:23:55;;;;;;;51.27;35.57;;;;;;;;;;4374195;32;20290;-82
2022/12/06 07:26:24;;;;;;;49.60;30.70;;;;;;;;;;4374852;32;20296;-83
2022/12/06 07:28:51;;;;;;;73.50;40.27;;;;;;;;;;4374582;32;20245;-82
2022/12/06 07:31:20;;;;;;;85.67;54.43;;;;;;;;;;4375097;32;20226;-81
2022/12/06 07:33:48;;;;;;;94.33;64.93;;;;;;;;;;4378359;32;20233;-80
2022/12/06 07:36:16;;;;;;;60.87;38.60;;;;;;;;;;4388180;32;20229;-79
2022/12/06 07:38:44;;;;;;;51.77;30.13;;;;;;;;;;4389303;32;20316;-86
2022/12/06 07:46:44;;;;;;;74.23;44.93;;;;;;;;;;4388812;32;20736;-81
2022/12/06 07:49:11;;;;;;;68.20;35.47;;;;;;;;;;4388707;32;20246;-81
2022/12/06 07:51:40;;;;;;;44.13;25.87;;;;;;;;;;4388669;32;20374;-85
2022/12/06 07:54:06;;;;;;;45.23;29.63;;;;;;;;;;4385835;32;20237;-81
2022/12/06 07:56:35;;;;;;;33.37;22.40;;;;;;;;;;4373909;32;20226;-81
2022/12/06 07:59:07;;;;;;;35.43;20.97;;;;;;;;;;4373760;32;20541;-85
2022/12/06 08:01:34;;;;;;;37.23;24.13;;;;;;;;;;4373309;32;20260;-81
2022/12/06 08:04:01;;;;;;;38.37;21.97;;;;;;;;;;4373655;32;20285;-81
2022/12/06 08:06:30;;;;;;;34.80;23.40;;;;;;;;;;4372808;32;20633;-80
2022/12/06 08:08:56;;;;;;;39.43;23.93;;;;;;;;;;4373094;32;20292;-81
2022/12/06 08:11:23;;;;;;;47.57;26.63;;;;;;;;;;4373388;32;20621;-81
2022/12/06 08:13:50;;;;;;;38.27;21.70;;;;;;;;;;4373241;32;20305;-82
2022/12/06 08:16:18;;;;;;;52.10;26.40;;;;;;;;;;4373648;32;20308;-82
2022/12/06 08:18:45;;;;;;;45.47;25.60;;;;;;;;;;4373926;32;20561;-80
2022/12/06 08:21:12;;;;;;;50.57;28.77;;;;;;;;;;4372791;32;20288;-85
2022/12/06 08:23:39;;;;;;;43.63;24.30;;;;;;;;;;4373365;32;20230;-81
2022/12/06 08:26:11;;;;;;;44.47;28.50;;;;;;;;;;4372994;32;20241;-83
2022/12/06 08:28:38;;;;;;;39.40;25.47;;;;;;;;;;4373343;32;20218;-81
2022/12/06 08:31:09;;;;;;;39.37;24.50;;;;;;;;;;4383627;32;20250;-82
2022/12/06 08:33:37;;;;;;;34.63;24.27;;;;;;;;;;4388483;32;20272;-81
2022/12/06 08:36:07;;;;;;;38.60;24.97;;;;;;;;;;4388229;32;20314;-82
2022/12/06 08:38:34;;;;;;;35.47;23.27;;;;;;;;;;4388231;32;20674;-82
2022/12/06 08:41:01;;;;;;;39.67;22.87;;;;;;;;;;4387691;32;20237;-82
2022/12/06 08:43:28;;;;;;;46.57;24.07;;;;;;;;;;4387954;32;20275;-84
2022/12/06 08:45:55;;;;;;;40.10;25.33;;;;;;;;;;4387655;32;20230;-82
2022/12/06 08:48:22;;;;;;;32.50;22.97;;;;;;;;;;4387874;32;20748;-81
2022/12/06 08:50:50;;;;;;;38.00;25.33;;;;;;;;;;4387897;32;20241;-81
2022/12/06 08:53:17;;;;;;;34.37;23.73;;;;;;;;;;4388054;32;20226;-84
2022/12/06 08:55:54;;;;;;;38.40;21.07;;;;;;;;;;4388151;32;20234;-82
2022/12/06 08:58:20;;;;;;;32.03;21.93;;;;;;;;;;4387613;32;20668;-86
2022/12/06 09:00:47;;;;;;;40.87;25.70;;;;;;;;;;4387396;32;20642;-81
2022/12/06 09:03:14;;;;;;;49.37;25.83;;;;;;;;;;4388492;32;20275;-81
2022/12/06 09:05:41;;;;;;;40.87;21.67;;;;;;;;;;4388009;32;20355;-81
2022/12/06 09:08:09;;;;;;;29.87;21.30;;;;;;;;;;4390262;32;20251;-83
2022/12/06 09:10:36;;;;;;;51.77;24.50;;;;;;;;;;4398215;32;20621;-79
2022/12/06 09:13:04;;;;;;;28.47;19.93;;;;;;;;;;4404735;32;20283;-81
2022/12/06 09:15:31;;;;;;;28.13;18.87;;;;;;;;;;4401871;32;20324;-80
2022/12/06 09:17:58;;;;;;;31.97;16.97;;;;;;;;;;4399849;32;20241;-85
2022/12/06 09:20:25;;;;;;;35.03;19.23;;;;;;;;;;4378109;32;20259;-86
2022/12/06 09:22:53;;;;;;;57.20;27.17;;;;;;;;;;4388648;32;20234;-81
2022/12/06 09:25:21;;;;;;;33.70;21.77;;;;;;;;;;4388022;32;20316;-80
2022/12/06 09:27:49;;;;;;;28.37;17.70;;;;;;;;;;4387154;32;20272;-84
2022/12/06 09:30:16;;;;;;;51.53;27.53;;;;;;;;;;4387277;32;20279;-79
2022/12/06 09:32:44;;;;;;;29.37;17.33;;;;;;;;;;4387888;32;20651;-81
2022/12/06 09:35:10;;;;;;;31.60;19.13;;;;;;;;;;4386882;32;20336;-85
2022/12/06 09:37:37;;;;;;;26.23;17.47;;;;;;;;;;4387341;32;20238;-80
2022/12/06 09:40:14;;;;;;;41.43;20.43;;;;;;;;;;4387216;32;20257;-81
2022/12/06 09:42:58;;;;;;;35.07;16.80;;;;;;;;;;4389272;32;20340;-79
2022/12/06 09:45:35;;;;;;;43.57;17.73;;;;;;;;;;4388011;32;20482;-81
2022/12/06 09:48:24;;;;;;;35.60;18.80;;;;;;;;;;4390015;32;20222;-82
2022/12/06 09:50:59;;;;;;;43.53;23.07;;;;;;;;;;4387694;32;20393;-86
2022/12/06 09:53:40;;;;;;;41.07;22.93;;;;;;;;;;4388477;32;20225;-83
2022/12/06 09:56:17;;;;;;;41.87;25.13;;;;;;;;;;4386886;32;20255;-85
2022/12/06 09:59:03;;;;;;;39.17;20.37;;;;;;;;;;4386935;32;20217;-84
2022/12/06 10:01:38;;;;;;;28.87;19.03;;;;;;;;;;4388402;32;20299;-81
2022/12/06 10:04:19;;;;;;;32.90;21.57;;;;;;;;;;4387839;32;20245;-84
2022/12/06 10:06:55;;;;;;;27.20;17.57;;;;;;;;;;4387419;32;20243;-85
2022/12/06 10:09:35;;;;;;;28.10;16.67;;;;;;;;;;4388743;32;20306;-85
2022/12/06 10:12:22;;;;;;;26.27;16.47;;;;;;;;;;4387048;32;20284;-80
2022/12/06 10:15:08;;;;;;;46.27;22.80;;;;;;;;;;4387135;32;20612;-80
2022/12/06 10:17:45;;;;;;;155.33;62.33;;;;;;;;;;4387609;32;20245;-81
2022/12/06 10:20:23;;;;;;;42.93;22.77;;;;;;;;;;4386553;32;20603;-85
2022/12/06 10:23:05;;;;;;;23.03;16.30;;;;;;;;;;4386549;32;20291;-81
2022/12/06 10:25:38;;;;;;;23.97;15.70;;;;;;;;;;4387023;32;20349;-83
2022/12/06 10:28:12;;;;;;;25.37;18.07;;;;;;;;;;4387022;32;20661;-80
2022/12/06 10:30:50;;;;;;;32.33;18.57;;;;;;;;;;4387005;32;20298;-82
2022/12/06 10:33:21;;;;;;;42.57;22.60;;;;;;;;;;4387397;32;20255;-82
2022/12/06 10:35:53;;;;;;;24.17;16.47;;;;;;;;;;4387186;32;20244;-82
2022/12/06 10:38:27;;;;;;;25.40;16.53;;;;;;;;;;4387031;32;20338;-81
2022/12/06 10:41:03;;;;;;;26.43;17.37;;;;;;;;;;4386707;32;20672;-82
2022/12/06 10:43:36;;;;;;;29.17;16.63;;;;;;;;;;4387312;32;20354;-81
2022/12/06 10:49:00;;;;;;;33.43;17.07;;;;;;;;;;4386939;32;20329;-83
2022/12/06 10:51:35;;;;;;;32.50;17.33;;;;;;;;;;4386902;32;20221;-82
2022/12/06 10:54:13;;;;;;;225.10;89.97;;;;;;;;;;4373385;32;20377;-80
2022/12/06 10:56:43;;;;;;;52.43;26.13;;;;;;;;;;4387041;32;20263;-80
2022/12/06 10:59:23;;;;;;;50.43;25.63;;;;;;;;;;4386829;32;20237;-84
2022/12/06 11:01:53;;;;;;;88.93;51.27;;;;;;;;;;4387277;32;20213;-81
2022/12/06 11:04:25;;;;;;;37.13;23.07;;;;;;;;;;4386324;32;20237;-82
2022/12/06 11:06:55;;;;;;;30.10;18.50;;;;;;;;;;4387289;32;20785;-85
2022/12/06 11:09:32;;;;;;;26.83;17.33;;;;;;;;;;4387107;32;20336;-81
2022/12/06 11:11:59;;;;;;;28.00;17.80;;;;;;;;;;4390237;32;20226;-85
2022/12/06 11:14:30;;;;;;;28.90;17.83;;;;;;;;;;4389481;32;20237;-84
2022/12/06 11:17:03;;;;;;;49.93;26.97;;;;;;;;;;4390056;32;20300;-83
2022/12/06 11:19:37;;;;;;;37.87;18.73;;;;;;;;;;4388795;32;20262;-81
2022/12/06 11:22:13;;;;;;;77.03;35.00;;;;;;;;;;4389868;32;20798;-80
2022/12/06 11:24:48;;;;;;;100.90;45.47;;;;;;;;;;4389504;32;20241;-83
2022/12/06 11:27:22;;;;;;;47.97;28.13;;;;;;;;;;4389572;32;20269;-80
2022/12/06 11:29:50;;;;;;;52.07;29.63;;;;;;;;;;4389295;32;20268;-82
2022/12/06 11:32:19;;;;;;;43.00;24.40;;;;;;;;;;4389091;32;20246;-84
2022/12/06 11:34:48;;;;;;;43.77;18.67;;;;;;;;;;4388679;32;20234;-81
2022/12/06 11:37:17;;;;;;;24.80;17.07;;;;;;;;;;4389743;32;20662;-81
2022/12/06 11:39:45;;;;;;;29.47;20.50;;;;;;;;;;4389245;32;20241;-81
2022/12/06 11:42:17;;;;;;;125.07;67.33;;;;;;;;;;4374128;32;20779;-81
2022/12/06 11:44:48;;;;;;;42.50;23.30;;;;;;;;;;4374395;32;20238;-86
2022/12/06 11:47:18;;;;;;;29.10;18.23;;;;;;;;;;4374026;32;20622;-81
2022/12/06 11:49:48;;;;;;;33.00;19.03;;;;;;;;;;4373892;32;20266;-83
2022/12/06 11:52:21;;;;;;;28.63;18.83;;;;;;;;;;4368463;32;20222;-82
2022/12/06 11:54:53;;;;;;;38.20;20.50;;;;;;;;;;4374610;32;20485;-81
2022/12/06 11:57:22;;;;;;;34.17;18.17;;;;;;;;;;4361357;32;20655;-84
2022/12/06 12:00:13;;;;;;;65.33;40.13;;;;;;;;;;4374010;32;20217;-83
2022/12/06 12:02:41;;;;;;;39.10;22.40;;;;;;;;;;4374245;32;20231;-85
2022/12/06 12:05:13;;;;;;;44.97;22.47;;;;;;;;;;4373953;32;20245;-81
2022/12/06 12:07:42;;;;;;;42.73;20.80;;;;;;;;;;4374569;32;20737;-83
2022/12/06 12:10:28;;;;;;;46.13;24.53;;;;;;;;;;4373869;32;20289;-83
2022/12/06 12:15:50;;;;;;;62.57;35.53;;;;;;;;;;4381737;32;20259;-82
2022/12/06 12:18:25;;;;;;;128.97;74.60;;;;;;;;;;4389145;32;20260;-83
2022/12/06 12:20:54;;;;;;;219.50;137.43;;;;;;;;;;4388335;32;20292;-86
2022/12/06 12:23:25;;;;;;;139.13;109.83;;;;;;;;;;4388607;32;20637;-86
2022/12/06 12:26:12;;;;;;;114.47;90.60;;;;;;;;;;4389181;32;20320;-81
2022/12/06 12:28:40;;;;;;;51.17;34.07;;;;;;;;;;4388728;32;20237;-84
2022/12/06 12:31:16;;;;;;;42.77;21.87;;;;;;;;;;4388538;32;20288;-82
2022/12/06 12:33:43;;;;;;;40.57;21.37;;;;;;;;;;4388257;32;20261;-86
2022/12/06 12:36:16;;;;;;;31.80;20.23;;;;;;;;;;4388552;32;20354;-83
2022/12/06 12:38:51;;;;;;;34.07;19.43;;;;;;;;;;4388307;32;20234;-82
2022/12/06 12:41:31;;;;;;;43.43;31.23;;;;;;;;;;4388692;32;20229;-83
2022/12/06 12:44:01;;;;;;;31.47;21.27;;;;;;;;;;4388847;32;20398;-82
2022/12/06 12:46:28;;;;;;;33.63;22.50;;;;;;;;;;4388397;32;20274;-84
2022/12/06 12:49:13;;;;;;;37.93;20.97;;;;;;;;;;4387974;32;20266;-82
2022/12/06 12:51:41;;;;;;;28.07;19.37;;;;;;;;;;4388512;32;20693;-85
2022/12/06 12:54:22;;;;;;;36.03;23.67;;;;;;;;;;4388031;32;20238;-80
2022/12/06 12:56:49;;;;;;;36.93;20.67;;;;;;;;;;4388678;32;20642;-81
2022/12/06 12:59:18;;;;;;;31.37;18.73;;;;;;;;;;4388138;32;20249;-80
2022/12/06 13:01:49;;;;;;;35.27;18.73;;;;;;;;;;4389051;32;20222;-87
2022/12/06 13:04:26;;;;;;;35.20;17.77;;;;;;;;;;4394651;32;20242;-84
2022/12/06 13:06:59;;;;;;;23.80;15.87;;;;;;;;;;4405002;32;20302;-83
2022/12/06 13:09:28;;;;;;;35.43;19.33;;;;;;;;;;4403462;32;20294;-85
2022/12/06 13:11:59;;;;;;;38.27;17.80;;;;;;;;;;4402184;32;20276;-80
2022/12/06 13:14:28;;;;;;;31.27;17.60;;;;;;;;;;4391518;32;20295;-81
2022/12/06 13:16:58;;;;;;;34.67;17.87;;;;;;;;;;4388116;32;20228;-80
2022/12/06 13:19:32;;;;;;;32.70;17.33;;;;;;;;;;4387705;32;20283;-86
2022/12/06 13:22:02;;;;;;;37.03;18.67;;;;;;;;;;4388014;32;20225;-80
2022/12/06 13:24:31;;;;;;;29.37;19.73;;;;;;;;;;4387901;32;20626;-80
2022/12/06 13:27:00;;;;;;;28.13;17.87;;;;;;;;;;4388029;32;20206;-83
2022/12/06 13:29:31;;;;;;;27.57;17.83;;;;;;;;;;4387734;32;20279;-81
2022/12/06 13:32:01;;;;;;;29.87;18.70;;;;;;;;;;4387973;32;20605;-83
2022/12/06 13:34:33;;;;;;;36.20;19.53;;;;;;;;;;4387483;32;20667;-81
2022/12/06 13:37:01;;;;;;;32.07;19.37;;;;;;;;;;4387706;32;20225;-82
2022/12/06 13:39:39;;;;;;;30.87;20.60;;;;;;;;;;4387642;32;20301;-83
2022/12/06 13:42:21;;;;;;;32.40;19.83;;;;;;;;;;4387927;32;20284;-81
2022/12/06 13:44:55;;;;;;;30.57;20.63;;;;;;;;;;4388095;32;20235;-85
2022/12/06 13:47:50;;;;;;;44.90;24.73;;;;;;;;;;4387832;32;20314;-84
2022/12/06 13:50:49;;;;;;;36.53;23.37;;;;;;;;;;4387651;32;20257;-81
2022/12/06 13:53:19;;;;;;;71.37;32.83;;;;;;;;;;4387556;32;20631;-83
2022/12/06 13:55:51;;;;;;;39.27;22.70;;;;;;;;;;4387393;32;20249;-83
2022/12/06 13:58:39;;;;;;;38.27;22.50;;;;;;;;;;4387379;32;20259;-82
2022/12/06 14:01:36;;;;;;;42.77;24.13;;;;;;;;;;4387555;32;20546;-80
2022/12/06 14:04:07;;;;;;;45.77;27.87;;;;;;;;;;4386914;32;20639;-81
2022/12/06 14:06:45;;;;;;;46.87;27.90;;;;;;;;;;4387745;32;20254;-86
2022/12/06 14:09:14;;;;;;;50.70;26.50;;;;;;;;;;4372059;32;20241;-82
2022/12/06 14:11:41;;;;;;;48.67;29.17;;;;;;;;;;4374862;32;20248;-85
2022/12/06 14:14:15;;;;;;;49.80;31.17;;;;;;;;;;4380323;32;20266;-81
2022/12/06 14:16:45;;;;;;;52.50;34.33;;;;;;;;;;4387285;32;20216;-81
2022/12/06 14:19:18;;;;;;;65.40;37.43;;;;;;;;;;4386957;32;20242;-83
2022/12/06 14:21:52;;;;;;;60.10;39.40;;;;;;;;;;4388008;32;20717;-83
2022/12/06 14:24:29;;;;;;;66.07;41.53;;;;;;;;;;4387652;32;20233;-82
2022/12/06 14:27:03;;;;;;;70.90;41.37;;;;;;;;;;4387418;32;20233;-80
2022/12/06 14:29:32;;;;;;;61.67;37.90;;;;;;;;;;4387561;32;20240;-83
2022/12/06 14:31:59;;;;;;;56.37;38.30;;;;;;;;;;4386687;32;20642;-81
2022/12/06 14:34:30;;;;;;;60.77;39.90;;;;;;;;;;4387000;32;20246;-80
2022/12/06 14:37:00;;;;;;;80.00;40.70;;;;;;;;;;4387508;32;20640;-80
2022/12/06 14:39:30;;;;;;;79.80;40.50;;;;;;;;;;4387196;32;20221;-83
2022/12/06 14:44:47;;;;;;;68.50;41.83;;;;;;;;;;4388294;32;20236;-85
2022/12/06 14:47:18;;;;;;;64.63;38.03;;;;;;;;;;4389941;32;20238;-81
2022/12/06 14:52:35;;;;;;;62.90;43.40;;;;;;;;;;4390489;32;20248;-80
2022/12/06 14:55:17;;;;;;;69.43;44.93;;;;;;;;;;4389933;32;20548;-84
2022/12/06 14:57:47;;;;;;;95.57;54.20;;;;;;;;;;4376798;32;20738;-81
2022/12/06 15:00:15;;;;;;;169.60;89.50;;;;;;;;;;4390311;32;20377;-84
2022/12/06 15:02:59;;;;;;;128.47;73.87;;;;;;;;;;4389649;32;20674;-84
2022/12/06 15:05:34;;;;;;;109.63;66.07;;;;;;;;;;4389080;32;20230;-80
2022/12/06 15:08:19;;;;;;;123.80;68.10;;;;;;;;;;4389906;32;20625;-82
2022/12/06 15:10:59;;;;;;;114.07;60.10;;;;;;;;;;4375980;32;20246;-83
2022/12/06 15:13:26;;;;;;;150.27;82.83;;;;;;;;;;4389785;32;20213;-85